Time;durP1;ratioP1;P1;durP2;ratioP2;P2;SDS_P1;SDS_P2;PMS_P1;PMS_P2;Temp;Humidity;BMP_temperature;BMP_pressure;BME280_temperature;BME280_humidity;BME280_pressure;Samples;Min_cycle;Max_cycle;Signal;HPM_P1;HPM_P2
2021/11/20 09:10:18;;;;;;;8.80;7.80;;;;;;;10.38;70.36;99902.63;2169951;54;52221;-70
2021/11/20 09:12:53;;;;;;;14.20;9.88;;;;;;;10.37;70.96;99903.59;2619815;47;20139;-69
2021/11/20 09:15:27;;;;;;;12.20;9.20;;;;;;;10.27;71.14;99900.28;2620263;47;20054;-68
2021/11/20 09:17:57;;;;;;;11.75;9.93;;;;;;;10.15;71.25;99899.72;2620129;54;20026;-68
2021/11/20 09:20:32;;;;;;;14.93;9.97;;;;;;;10.13;71.12;99891.16;2620933;46;20023;-69
2021/11/20 09:23:06;;;;;;;11.45;9.90;;;;;;;10.11;70.94;99893.94;2621885;39;20684;-67
2021/11/20 09:26:14;;;;;;;13.00;9.18;;;;;;;10.16;71.02;99896.94;2621233;47;20034;-69
2021/11/20 09:28:55;;;;;;;11.05;8.25;;;;;;;10.19;70.64;99882.56;2621438;54;20030;-69
2021/11/20 09:31:27;;;;;;;11.20;10.00;;;;;;;10.27;70.61;99887.88;2622303;54;20042;-69
2021/11/20 09:33:59;;;;;;;12.95;9.00;;;;;;;10.32;70.24;99888.22;2621560;47;20117;-71
2021/11/20 09:36:30;;;;;;;8.90;8.00;;;;;;;10.46;70.42;99878.00;2620670;54;20030;-69
2021/11/20 09:39:16;;;;;;;16.92;12.52;;;;;;;10.57;69.79;99881.13;2618502;46;20041;-69
2021/11/20 09:42:04;;;;;;;10.88;9.00;;;;;;;10.69;70.23;99878.97;2620561;39;20419;-69
2021/11/20 09:44:43;;;;;;;9.43;7.72;;;;;;;10.77;69.89;99867.53;2622832;54;20027;-69
2021/11/20 09:47:21;;;;;;;12.07;10.32;;;;;;;10.74;69.10;99875.84;2622170;54;20034;-69
2021/11/20 09:49:55;;;;;;;12.43;10.30;;;;;;;10.63;68.59;99877.00;2621989;47;20025;-69
2021/11/20 09:52:24;;;;;;;12.90;9.60;;;;;;;10.54;68.44;99880.63;2621688;54;20030;-69
2021/11/20 09:54:54;;;;;;;9.82;8.82;;;;;;;10.52;68.28;99870.22;2622545;54;20275;-69
2021/11/20 09:57:44;;;;;;;9.70;8.70;;;;;;;10.51;68.62;99873.03;2622379;47;20534;-69
2021/11/20 10:00:39;;;;;;;13.93;10.90;;;;;;;10.53;68.11;99871.03;2622871;54;20033;-69
2021/11/20 10:03:09;;;;;;;;;;;;;;;10.56;67.55;99862.78;2622877;54;20562;-69
2021/11/20 10:05:44;;;;;;;11.85;9.00;;;;;;;10.53;67.28;99863.09;2623436;54;19973;-69
2021/11/20 10:08:18;;;;;;;11.75;10.20;;;;;;;10.54;67.13;99862.97;2622341;54;20031;-69
2021/11/20 10:10:51;;;;;;;8.82;7.97;;;;;;;10.54;66.96;99865.59;2622063;54;20632;-69
2021/11/20 10:13:26;;;;;;;9.73;8.65;;;;;;;10.60;67.24;99867.56;2622685;39;20472;-69
2021/11/20 10:16:00;;;;;;;9.88;8.88;;;;;;;10.72;66.75;99860.13;2622977;54;20542;-69
2021/11/20 10:18:33;;;;;;;9.90;8.73;;;;;;;10.79;65.82;99862.94;2621928;54;20034;-69
2021/11/20 10:21:17;;;;;;;8.63;7.07;;;;;;;10.90;64.88;99846.72;2621485;54;20027;-70
2021/11/20 10:23:49;;;;;;;;;;;;;;;11.04;64.64;99845.19;2621549;54;20042;-70
2021/11/20 10:26:49;;;;;;;8.45;6.68;;;;;;;11.23;63.69;99828.91;2621511;54;20326;-69
2021/11/20 10:29:52;;;;;;;7.47;6.85;;;;;;;11.35;63.52;99830.19;2621905;54;20028;-69
2021/11/20 10:32:31;;;;;;;8.20;6.00;;;;;;;11.44;62.02;99819.53;2622269;31;20547;-70
2021/11/20 10:35:04;;;;;;;8.48;6.50;;;;;;;11.40;62.52;99808.47;2621082;47;20022;-70
2021/11/20 10:37:39;;;;;;;8.25;6.75;;;;;;;11.48;62.42;99819.03;2620286;54;20050;-70
2021/11/20 10:40:18;;;;;;;7.22;6.53;;;;;;;11.43;61.99;99816.06;2620693;54;20037;-70
2021/11/20 10:42:55;;;;;;;6.65;5.13;;;;;;;11.43;62.23;99809.94;2620401;54;20041;-70
2021/11/20 10:45:39;;;;;;;7.47;5.63;;;;;;;11.46;61.94;99797.19;2620115;54;20090;-69
2021/11/20 10:48:11;;;;;;;;;;;;;;;11.45;62.09;99798.19;2620330;54;20034;-70
2021/11/20 10:50:44;;;;;;;8.32;6.93;;;;;;;11.42;61.37;99795.88;2621182;54;20404;-68
2021/11/20 10:53:47;;;;;;;8.82;6.43;;;;;;;11.28;61.42;99792.16;2621344;54;20055;-68
2021/11/20 10:56:26;;;;;;;6.93;5.55;;;;;;;11.33;61.64;99788.97;2622103;54;20034;-68
2021/11/20 10:59:14;;;;;;;5.70;5.07;;;;;;;11.41;61.44;99778.34;2621020;54;20026;-69
2021/11/20 11:02:13;;;;;;;6.70;5.22;;;;;;;11.47;61.06;99777.66;2622720;54;20030;-69
2021/11/20 11:05:11;;;;;;;8.10;6.78;;;;;;;11.57;61.32;99780.06;2623451;54;20043;-69
2021/11/20 11:08:00;;;;;;;5.50;4.80;;;;;;;11.61;60.50;99773.44;2623946;54;20082;-69
2021/11/20 11:10:40;;;;;;;6.32;5.40;;;;;;;11.61;60.42;99771.59;2623404;54;20526;-70
2021/11/20 11:13:16;;;;;;;6.22;5.68;;;;;;;11.67;60.42;99762.13;2621624;54;20030;-70
2021/11/20 11:16:04;;;;;;;6.53;5.85;;;;;;;11.71;59.99;99754.66;2622605;54;20034;-70
2021/11/20 11:18:40;;;;;;;6.40;5.07;;;;;;;11.76;60.51;99747.84;2622479;54;20054;-70
2021/11/20 11:21:40;;;;;;;5.15;4.68;;;;;;;11.81;59.40;99744.66;2621789;54;20030;-70
2021/11/20 11:24:30;;;;;;;6.93;4.50;;;;;;;11.78;60.28;99745.00;2621668;54;20026;-71
2021/11/20 11:27:04;;;;;;;7.88;5.10;;;;;;;11.88;59.93;99741.16;2621951;54;20045;-70
2021/11/20 11:30:00;;;;;;;6.43;4.63;;;;;;;11.86;59.39;99732.53;2622182;54;20550;-68
2021/11/20 11:32:36;;;;;;;7.93;5.70;;;;;;;11.82;58.83;99723.28;2622126;54;20034;-70
2021/11/20 11:35:16;;;;;;;7.13;5.97;;;;;;;11.76;58.84;99724.00;2622984;54;20037;-72
2021/11/20 11:38:00;;;;;;;5.65;4.97;;;;;;;11.71;59.10;99707.78;2622489;54;20041;-71
2021/11/20 11:40:36;;;;;;;6.95;4.40;;;;;;;11.73;59.65;99707.63;2623076;54;20034;-70
2021/11/20 11:43:16;;;;;;;5.03;4.53;;;;;;;11.78;59.64;99700.78;2621814;51;20034;-71
2021/11/20 11:46:20;;;;;;;6.43;5.72;;;;;;;11.87;58.63;99688.31;2622841;47;20045;-68
2021/11/20 11:49:15;;;;;;;7.35;5.65;;;;;;;11.85;58.97;99691.16;2622267;54;20141;-71
2021/11/20 11:51:58;;;;;;;9.02;5.93;;;;;;;11.86;59.25;99678.75;2620938;54;20031;-70
2021/11/20 11:54:41;;;;;;;5.65;5.15;;;;;;;11.86;59.38;99670.78;2621975;54;20034;-73
2021/11/20 11:57:40;;;;;;;5.47;4.95;;;;;;;11.87;58.74;99673.25;2621614;54;20038;-69
2021/11/20 12:00:28;;;;;;;5.72;5.13;;;;;;;11.82;58.68;99666.81;2620522;54;20093;-69
2021/11/20 12:03:04;;;;;;;7.45;5.53;;;;;;;11.86;59.11;99658.34;2620997;54;20121;-69
2021/11/20 12:05:43;;;;;;;5.70;5.10;;;;;;;11.97;59.23;99657.13;2621431;54;20069;-69
2021/11/20 12:08:43;;;;;;;6.05;5.47;;;;;;;12.00;58.55;99640.00;2622136;39;20434;-70
2021/11/20 12:11:17;;;;;;;5.95;5.32;;;;;;;11.93;58.69;99642.59;2621934;54;20031;-69
2021/11/20 12:13:51;;;;;;;7.80;6.18;;;;;;;11.95;59.29;99632.59;2623256;54;20039;-69
2021/11/20 12:16:44;;;;;;;7.38;5.85;;;;;;;11.98;58.30;99619.00;2623384;54;20038;-69
2021/11/20 12:19:27;;;;;;;7.53;6.50;;;;;;;11.96;58.78;99617.53;2622930;54;20033;-70
2021/11/20 12:22:11;;;;;;;8.25;6.45;;;;;;;12.00;58.59;99609.06;2621555;54;20041;-70
2021/11/20 12:24:49;;;;;;;6.25;5.65;;;;;;;12.07;58.30;99604.66;2622200;54;20027;-69
2021/11/20 12:27:37;;;;;;;6.95;5.32;;;;;;;12.02;58.22;99600.91;2623171;54;20031;-70
2021/11/20 12:30:38;;;;;;;5.95;5.35;;;;;;;12.06;57.63;99596.91;2621690;47;20051;-68
2021/11/20 12:33:32;;;;;;;5.70;5.05;;;;;;;12.00;57.81;99585.22;2620932;54;20039;-69
2021/11/20 12:36:19;;;;;;;6.82;5.70;;;;;;;12.01;58.76;99586.03;2622307;54;20038;-70
2021/11/20 12:39:04;;;;;;;7.30;5.03;;;;;;;12.10;57.96;99569.03;2623371;39;20446;-69
2021/11/20 12:41:50;;;;;;;7.80;5.95;;;;;;;12.07;57.67;99569.38;2622594;54;20042;-69
2021/11/20 12:44:40;;;;;;;6.05;5.10;;;;;;;12.02;57.94;99563.81;2621442;54;20042;-71
2021/11/20 12:47:27;;;;;;;6.00;5.43;;;;;;;12.02;57.35;99561.16;2623094;54;20038;-69
2021/11/20 12:50:06;;;;;;;5.90;5.30;;;;;;;11.96;57.86;99557.44;2621600;54;20022;-70
2021/11/20 12:52:39;;;;;;;8.00;5.32;;;;;;;12.00;57.87;99557.88;2621626;54;20068;-71
2021/11/20 12:55:35;;;;;;;5.97;4.93;;;;;;;12.02;57.56;99547.91;2621663;54;20042;-68
2021/11/20 12:58:17;;;;;;;6.18;5.57;;;;;;;11.99;57.92;99550.94;2621477;47;20041;-70
2021/11/20 13:00:52;;;;;;;5.53;4.97;;;;;;;11.94;57.83;99540.06;2621389;54;20051;-70
2021/11/20 13:03:31;;;;;;;5.25;4.57;;;;;;;11.87;58.48;99540.78;2621326;54;20046;-70
2021/11/20 13:06:12;;;;;;;7.30;5.38;;;;;;;11.95;57.73;99533.75;2620840;54;20031;-70
2021/11/20 13:08:51;;;;;;;8.32;5.57;;;;;;;12.04;57.92;99535.28;2620455;54;20094;-71
2021/11/20 13:11:27;;;;;;;7.07;6.40;;;;;;;12.02;57.62;99527.53;2620937;54;20061;-70
2021/11/20 13:14:19;;;;;;;6.70;6.00;;;;;;;12.00;57.63;99526.06;2622185;54;20139;-70
2021/11/20 13:17:04;;;;;;;7.63;5.82;;;;;;;12.02;57.75;99510.81;2622370;54;20042;-69
2021/11/20 13:20:00;;;;;;;5.85;5.00;;;;;;;12.04;57.88;99509.63;2623507;54;20027;-69
2021/11/20 13:22:35;;;;;;;7.45;6.65;;;;;;;12.07;57.52;99509.25;2622349;54;20554;-72
2021/11/20 13:25:15;;;;;;;12.63;9.38;;;;;;;12.09;57.60;99507.25;2623570;54;20032;-69
2021/11/20 13:28:04;;;;;;;6.43;5.65;;;;;;;12.08;57.53;99504.75;2622942;54;20039;-71
2021/11/20 13:30:41;;;;;;;7.70;5.68;;;;;;;12.08;58.05;99494.16;2623268;54;20079;-67
2021/11/20 13:33:14;;;;;;;6.55;5.78;;;;;;;12.09;57.50;99482.59;2623380;54;20041;-70
2021/11/20 13:35:44;;;;;;;5.30;4.80;;;;;;;12.08;57.52;99478.25;2623847;54;20038;-70
2021/11/20 13:38:16;;;;;;;7.07;6.38;;;;;;;12.13;58.18;99478.56;2621548;54;20034;-70
2021/11/20 13:40:49;;;;;;;7.88;5.60;;;;;;;12.13;57.84;99476.72;2621722;54;20084;-69
2021/11/20 13:43:25;;;;;;;9.98;6.07;;;;;;;12.18;57.88;99481.47;2621535;54;20038;-69
2021/11/20 13:45:57;;;;;;;8.75;6.25;;;;;;;12.13;57.91;99476.72;2621624;54;20026;-70
2021/11/20 13:48:28;;;;;;;6.30;5.70;;;;;;;12.10;57.65;99465.66;2620922;47;20561;-71
2021/11/20 13:51:01;;;;;;;7.50;5.90;;;;;;;12.08;57.74;99473.81;2620821;47;20042;-69
2021/11/20 13:53:35;;;;;;;6.75;5.85;;;;;;;12.06;57.68;99467.03;2620621;54;20034;-69
2021/11/20 13:56:11;;;;;;;7.68;6.45;;;;;;;12.04;58.04;99469.91;2619614;54;20034;-70
2021/11/20 13:58:43;;;;;;;7.88;6.78;;;;;;;12.04;57.52;99469.91;2619531;54;20053;-70
2021/11/20 14:01:18;;;;;;;6.55;5.95;;;;;;;11.95;57.64;99456.91;2619010;54;20033;-70
2021/11/20 14:04:00;;;;;;;7.05;6.22;;;;;;;11.87;58.02;99457.84;2620530;39;20490;-71
2021/11/20 14:06:30;;;;;;;7.70;6.72;;;;;;;11.80;57.84;99451.63;2620458;54;20030;-70
2021/11/20 14:09:03;;;;;;;6.88;6.20;;;;;;;11.77;58.35;99449.34;2620686;54;20037;-70
2021/11/20 14:11:33;;;;;;;8.23;6.50;;;;;;;11.74;58.42;99450.50;2621136;54;20038;-71
2021/11/20 14:14:09;;;;;;;8.38;6.80;;;;;;;11.76;58.37;99445.06;2620793;47;20638;-69
2021/11/20 14:16:41;;;;;;;11.73;6.68;;;;;;;11.72;58.37;99443.78;2621450;54;20065;-70
2021/11/20 14:19:15;;;;;;;8.57;7.18;;;;;;;11.70;58.63;99436.00;2621119;54;20079;-69
2021/11/20 14:21:44;;;;;;;10.70;7.22;;;;;;;11.69;58.44;99434.38;2620995;54;20027;-71
2021/11/20 14:24:25;;;;;;;7.85;6.97;;;;;;;11.58;58.45;99437.47;2621944;39;20435;-70
2021/11/20 14:26:58;;;;;;;7.90;6.93;;;;;;;11.52;58.79;99431.09;2621210;54;20034;-71
2021/11/20 14:29:36;;;;;;;9.18;7.65;;;;;;;11.52;58.61;99432.91;2620736;54;20042;-70
2021/11/20 14:32:10;;;;;;;8.10;6.80;;;;;;;11.43;59.06;99426.06;2619879;54;20038;-69
2021/11/20 14:34:42;;;;;;;11.32;8.70;;;;;;;11.43;58.98;99428.69;2620200;39;20450;-70
2021/11/20 14:37:16;;;;;;;8.63;7.75;;;;;;;11.35;59.19;99421.69;2622214;31;20547;-70
2021/11/20 14:39:51;;;;;;;9.90;7.75;;;;;;;11.26;59.05;99418.28;2623176;39;20436;-69
2021/11/20 14:42:23;;;;;;;9.30;7.97;;;;;;;11.27;59.35;99417.31;2622357;54;20026;-70
2021/11/20 14:45:06;;;;;;;8.05;7.20;;;;;;;11.27;59.59;99417.31;2622585;46;20079;-69
2021/11/20 14:47:44;;;;;;;9.38;8.45;;;;;;;11.23;59.77;99418.69;2625712;31;20551;-68
2021/11/20 14:50:20;;;;;;;10.05;8.05;;;;;;;11.19;59.64;99401.50;2622333;54;20555;-69
2021/11/20 14:52:59;;;;;;;10.18;7.93;;;;;;;11.15;59.82;99409.00;2621778;54;20041;-68
2021/11/20 14:55:38;;;;;;;10.50;7.28;;;;;;;11.11;60.02;99399.78;2621978;54;20546;-70
2021/11/20 14:58:14;;;;;;;9.98;8.73;;;;;;;11.11;60.04;99409.53;2622088;54;20576;-69
2021/11/20 15:00:49;;;;;;;11.32;8.73;;;;;;;11.03;60.20;99402.50;2624004;54;20037;-69
2021/11/20 15:03:19;;;;;;;10.40;9.20;;;;;;;10.95;60.44;99401.75;2623956;54;20045;-69
2021/11/20 15:05:48;;;;;;;10.40;9.27;;;;;;;10.88;60.18;99401.66;2623669;54;20045;-69
2021/11/20 15:08:19;;;;;;;9.98;8.15;;;;;;;10.79;60.29;99398.25;2623152;54;20161;-69
2021/11/20 15:10:49;;;;;;;36.28;25.25;;;;;;;10.70;61.08;99391.41;2623464;54;20558;-69
2021/11/20 15:13:19;;;;;;;13.43;9.82;;;;;;;10.60;61.27;99383.72;2623217;47;20041;-69
2021/11/20 15:15:51;;;;;;;11.45;9.50;;;;;;;10.53;61.68;99382.81;2623111;54;20042;-69
2021/11/20 15:18:21;;;;;;;9.63;8.63;;;;;;;10.40;61.78;99377.28;2621902;54;20042;-69
2021/11/20 15:20:52;;;;;;;12.02;8.52;;;;;;;10.30;62.16;99376.69;2621515;54;20038;-69
2021/11/20 15:23:30;;;;;;;11.68;9.60;;;;;;;10.20;62.38;99368.97;2621650;46;20026;-69
2021/11/20 15:26:00;;;;;;;11.27;8.90;;;;;;;10.11;63.23;99368.19;2622144;39;20446;-69
2021/11/20 15:28:31;;;;;;;11.70;9.05;;;;;;;10.03;63.28;99372.72;2621825;39;20434;-69
2021/11/20 15:31:03;;;;;;;12.20;10.40;;;;;;;9.93;63.31;99357.94;2621850;54;20035;-69
2021/11/20 15:33:33;;;;;;;12.52;9.10;;;;;;;9.83;63.67;99352.03;2622213;54;20026;-69
2021/11/20 15:36:03;;;;;;;11.30;9.07;;;;;;;9.76;64.16;99364.31;2623080;39;20422;-69
2021/11/20 15:38:32;;;;;;;10.93;9.43;;;;;;;9.76;64.30;99361.66;2621803;54;20030;-70
2021/11/20 15:41:02;;;;;;;13.82;9.93;;;;;;;9.73;64.40;99358.53;2620810;47;20577;-69
2021/11/20 15:43:32;;;;;;;12.13;9.93;;;;;;;9.63;64.18;99353.47;2620168;54;20034;-69
2021/11/20 15:46:04;;;;;;;11.68;9.32;;;;;;;9.51;64.57;99352.19;2620269;54;20031;-68
2021/11/20 15:48:34;;;;;;;14.80;11.68;;;;;;;9.44;64.81;99357.38;2621430;54;20155;-68
2021/11/20 15:51:03;;;;;;;12.25;10.18;;;;;;;9.34;65.14;99359.38;2620698;54;20086;-68
2021/11/20 15:53:33;;;;;;;17.08;10.50;;;;;;;9.25;65.35;99350.66;2621019;54;20037;-69
2021/11/20 15:56:03;;;;;;;14.60;11.90;;;;;;;9.18;65.32;99345.28;2621227;54;20033;-68
2021/11/20 15:58:32;;;;;;;14.30;11.75;;;;;;;9.08;66.05;99346.44;2621882;54;20050;-68
2021/11/20 16:01:05;;;;;;;15.55;11.65;;;;;;;9.03;66.24;99351.41;2623240;54;20059;-68
2021/11/20 16:03:35;;;;;;;15.45;11.63;;;;;;;9.05;66.51;99350.22;2623503;54;20049;-70
2021/11/20 16:06:05;;;;;;;18.02;13.23;;;;;;;9.07;66.43;99337.72;2622346;47;20030;-69
2021/11/20 16:08:35;;;;;;;15.32;12.10;;;;;;;9.04;66.16;99335.41;2622695;54;20082;-69
2021/11/20 16:11:05;;;;;;;16.40;12.80;;;;;;;9.01;66.40;99340.19;2621744;54;20054;-69
2021/11/20 16:13:35;;;;;;;18.38;12.90;;;;;;;8.92;66.49;99334.94;2622069;54;20038;-68
2021/11/20 16:16:08;;;;;;;16.88;12.57;;;;;;;8.88;66.93;99332.81;2621536;47;20038;-69
2021/11/20 16:18:38;;;;;;;16.02;11.73;;;;;;;8.87;66.94;99339.91;2622435;54;20038;-70
2021/11/20 16:21:10;;;;;;;18.10;12.07;;;;;;;8.89;67.06;99335.28;2622699;54;20042;-69
2021/11/20 16:23:40;;;;;;;15.95;11.65;;;;;;;8.84;67.33;99329.69;2622637;54;20039;-71
2021/11/20 16:26:10;;;;;;;15.50;12.13;;;;;;;8.87;67.32;99323.28;2622371;54;20030;-69
2021/11/20 16:28:40;;;;;;;15.40;11.57;;;;;;;8.88;66.99;99325.72;2622043;54;20030;-71
2021/11/20 16:31:12;;;;;;;15.98;12.13;;;;;;;8.86;67.14;99325.09;2620114;47;20041;-70
2021/11/20 16:33:42;;;;;;;16.27;11.50;;;;;;;8.79;66.84;99315.38;2622420;54;20030;-70
2021/11/20 16:36:11;;;;;;;15.07;11.70;;;;;;;8.73;67.20;99327.41;2623348;54;20038;-69
2021/11/20 16:38:56;;;;;;;13.10;10.70;;;;;;;8.65;67.10;99316.88;2624803;39;20173;-68
2021/11/20 16:41:29;;;;;;;12.98;10.50;;;;;;;8.54;68.06;99317.25;2622721;54;20045;-69
2021/11/20 16:43:59;;;;;;;17.33;10.60;;;;;;;8.49;67.70;99314.25;2622157;54;20027;-69
2021/11/20 16:46:33;;;;;;;14.82;11.10;;;;;;;8.39;68.59;99299.47;2623136;54;20031;-69
2021/11/20 16:49:03;;;;;;;15.63;10.88;;;;;;;8.35;68.62;99305.19;2623378;39;20423;-69
2021/11/20 16:54:22;;;;;;;13.95;11.18;;;;;;;8.30;68.79;99299.63;2623720;47;20062;-69
2021/11/20 16:56:54;;;;;;;15.10;10.70;;;;;;;8.22;69.15;99297.81;2623013;47;20034;-70
2021/11/20 16:59:25;;;;;;;13.60;10.57;;;;;;;8.17;69.70;99300.13;2621864;47;20039;-70
2021/11/20 17:01:57;;;;;;;15.25;10.30;;;;;;;8.24;69.60;99295.00;2622239;39;20419;-69
2021/11/20 17:04:28;;;;;;;14.80;11.35;;;;;;;8.34;69.55;99290.38;2620300;54;20567;-70
2021/11/20 17:06:58;;;;;;;15.82;11.68;;;;;;;8.34;69.61;99290.38;2617551;54;20034;-69
2021/11/20 17:09:28;;;;;;;14.73;11.65;;;;;;;8.33;69.79;99284.31;2620831;54;20038;-70
2021/11/20 17:11:58;;;;;;;16.90;12.35;;;;;;;8.38;69.58;99281.19;2621843;54;20030;-69
2021/11/20 17:14:32;;;;;;;15.15;10.65;;;;;;;8.51;69.88;99278.03;2622160;39;20441;-69
2021/11/20 17:17:07;;;;;;;15.85;11.88;;;;;;;8.62;69.37;99277.69;2621685;54;20608;-69
2021/11/20 17:19:38;;;;;;;17.15;11.00;;;;;;;8.57;69.15;99275.56;2622040;54;20281;-69
2021/11/20 17:22:08;;;;;;;18.55;11.65;;;;;;;8.50;69.30;99279.84;2622112;47;20551;-70
2021/11/20 17:24:38;;;;;;;16.55;12.55;;;;;;;8.43;68.70;99274.44;2622212;47;20030;-70
2021/11/20 17:27:07;;;;;;;15.88;11.95;;;;;;;8.34;68.87;99271.94;2619913;54;20046;-71
2021/11/20 17:29:38;;;;;;;17.25;12.43;;;;;;;8.31;69.25;99273.09;2618449;54;20122;-70
2021/11/20 17:32:11;;;;;;;16.92;12.30;;;;;;;8.34;69.34;99270.13;2622411;54;20038;-69
2021/11/20 17:34:40;;;;;;;15.65;12.23;;;;;;;8.40;69.52;99266.84;2622402;54;20542;-70
2021/11/20 17:37:13;;;;;;;17.58;13.10;;;;;;;8.49;69.26;99274.75;2620907;54;20075;-68
2021/11/20 17:39:42;;;;;;;17.75;13.18;;;;;;;8.50;69.37;99268.50;2620812;54;20038;-68
2021/11/20 17:42:12;;;;;;;16.38;12.30;;;;;;;8.52;68.95;99266.50;2621175;54;20050;-70
2021/11/20 17:44:42;;;;;;;17.38;12.38;;;;;;;8.53;68.70;99266.34;2621894;54;20132;-69
2021/11/20 17:47:16;;;;;;;17.90;12.63;;;;;;;8.42;68.75;99262.25;2621887;54;20042;-70
2021/11/20 17:49:47;;;;;;;15.05;11.63;;;;;;;8.39;69.15;99259.94;2622457;54;20050;-70
2021/11/20 17:52:16;;;;;;;18.15;12.25;;;;;;;8.42;69.13;99256.16;2622460;54;20034;-70
2021/11/20 17:54:47;;;;;;;19.88;13.23;;;;;;;8.42;68.83;99262.25;2622691;54;20038;-70
2021/11/20 17:57:20;;;;;;;20.08;14.48;;;;;;;8.39;68.79;99256.50;2622959;54;20092;-71
2021/11/20 17:59:49;;;;;;;18.10;13.48;;;;;;;8.38;69.01;99257.47;2623321;54;20030;-68
2021/11/20 18:02:22;;;;;;;17.05;13.18;;;;;;;8.32;69.18;99253.66;2622551;54;20030;-70
2021/11/20 18:04:55;;;;;;;17.63;13.90;;;;;;;8.30;69.04;99253.03;2622989;54;20566;-70
2021/11/20 18:07:25;;;;;;;20.55;14.65;;;;;;;8.24;69.23;99248.41;2622985;54;20039;-69
2021/11/20 18:09:55;;;;;;;18.85;14.27;;;;;;;8.26;69.28;99253.53;2622303;47;20057;-70
2021/11/20 18:12:25;;;;;;;16.42;12.88;;;;;;;8.19;69.51;99251.53;2622865;54;20042;-70
2021/11/20 18:14:55;;;;;;;17.58;13.05;;;;;;;8.11;69.66;99235.75;2623136;39;20455;-70
2021/11/20 18:17:27;;;;;;;19.00;12.95;;;;;;;8.05;69.40;99239.06;2622314;47;20026;-71
2021/11/20 18:19:56;;;;;;;19.42;13.93;;;;;;;7.93;69.55;99230.66;2622872;54;20025;-70
2021/11/20 18:22:27;;;;;;;18.98;13.90;;;;;;;7.93;69.91;99227.22;2622835;54;20038;-71
2021/11/20 18:24:57;;;;;;;19.52;14.45;;;;;;;7.93;70.29;99228.03;2622177;54;20058;-71
2021/11/20 18:27:28;;;;;;;19.55;15.10;;;;;;;7.94;70.08;99228.84;2622160;54;20034;-70
2021/11/20 18:29:58;;;;;;;21.95;14.80;;;;;;;7.95;70.24;99226.03;2622815;54;20030;-70
2021/11/20 18:32:30;;;;;;;18.45;13.23;;;;;;;7.94;69.81;99224.41;2621816;54;20061;-71
2021/11/20 18:35:00;;;;;;;18.80;14.07;;;;;;;7.92;70.39;99222.94;2621395;39;20469;-71
2021/11/20 18:37:30;;;;;;;20.00;14.43;;;;;;;7.89;70.21;99218.00;2623334;54;20061;-71
2021/11/20 18:39:59;;;;;;;22.25;15.27;;;;;;;7.86;70.47;99218.31;2623210;47;20039;-70
2021/11/20 18:42:29;;;;;;;18.58;13.93;;;;;;;7.90;70.59;99217.81;2622347;47;20022;-71
2021/11/20 18:44:59;;;;;;;19.10;14.63;;;;;;;7.87;70.23;99225.22;2623577;54;20130;-71
2021/11/20 18:47:31;;;;;;;18.67;14.57;;;;;;;7.79;70.79;99219.97;2623500;54;20038;-70
2021/11/20 18:50:03;;;;;;;19.60;14.20;;;;;;;7.76;70.62;99223.75;2623472;54;20031;-70
2021/11/20 18:52:33;;;;;;;21.40;15.73;;;;;;;7.76;70.80;99217.69;2623803;54;20034;-71
2021/11/20 18:55:03;;;;;;;18.63;14.60;;;;;;;7.75;71.23;99211.56;2624114;54;20038;-71
2021/11/20 18:57:32;;;;;;;22.67;16.30;;;;;;;7.65;71.08;99206.47;2623321;54;20078;-70
2021/11/20 19:00:02;;;;;;;19.98;15.02;;;;;;;7.63;71.44;99204.97;2623768;54;20046;-71
2021/11/20 19:02:34;;;;;;;20.08;15.48;;;;;;;7.63;71.82;99204.97;2622553;54;20026;-70
2021/11/20 19:05:04;;;;;;;26.38;19.13;;;;;;;7.62;72.01;99196.28;2623383;54;20050;-71
2021/11/20 19:07:34;;;;;;;22.38;17.38;;;;;;;7.65;71.89;99193.31;2623799;54;20127;-70
2021/11/20 19:10:05;;;;;;;24.67;17.77;;;;;;;7.69;72.02;99185.94;2624922;54;20579;-70
2021/11/20 19:12:35;;;;;;;22.25;15.50;;;;;;;7.67;71.61;99177.34;2624420;54;20042;-68
2021/11/20 19:15:08;;;;;;;27.95;18.25;;;;;;;7.66;71.82;99173.91;2624515;54;20066;-68
2021/11/20 19:17:40;;;;;;;20.80;15.80;;;;;;;7.61;71.99;99172.75;2622645;54;20049;-69
2021/11/20 19:20:13;;;;;;;21.38;15.32;;;;;;;7.53;72.02;99159.63;2623362;54;20030;-69
2021/11/20 19:22:43;;;;;;;23.73;17.65;;;;;;;7.50;72.38;99165.19;2622708;54;20057;-68
2021/11/20 19:25:16;;;;;;;21.95;16.52;;;;;;;7.53;72.67;99149.91;2622653;47;20037;-69
2021/11/20 19:27:47;;;;;;;22.65;17.02;;;;;;;7.54;72.80;99145.47;2622355;54;20042;-69
2021/11/20 19:30:20;;;;;;;18.58;15.45;;;;;;;7.52;72.88;99144.81;2622094;47;20026;-70
2021/11/20 19:32:53;;;;;;;20.83;15.88;;;;;;;7.59;72.52;99133.47;2623019;47;20023;-70
2021/11/20 19:35:22;;;;;;;27.08;17.70;;;;;;;7.61;72.80;99135.94;2624507;39;20444;-70
2021/11/20 19:37:52;;;;;;;28.17;19.88;;;;;;;7.60;72.61;99135.13;2624058;39;20446;-69
2021/11/20 19:40:22;;;;;;;27.02;19.23;;;;;;;7.63;72.95;99136.56;2623240;54;20038;-73
2021/11/20 19:42:51;;;;;;;26.10;19.05;;;;;;;7.68;73.27;99135.09;2621909;54;20590;-69
2021/11/20 19:45:21;;;;;;;25.38;18.35;;;;;;;7.67;72.35;99133.47;2622351;54;20053;-70
2021/11/20 19:47:53;;;;;;;23.73;17.73;;;;;;;7.68;73.07;99132.47;2622314;47;20039;-70
2021/11/20 19:50:24;;;;;;;21.80;16.38;;;;;;;7.67;72.86;99124.72;2623315;54;20030;-70
2021/11/20 19:52:55;;;;;;;22.25;17.52;;;;;;;7.62;72.94;99127.03;2622633;54;20547;-70
2021/11/20 19:55:25;;;;;;;25.40;18.52;;;;;;;7.58;72.98;99131.00;2623312;54;20037;-70
2021/11/20 19:57:55;;;;;;;23.85;18.35;;;;;;;7.55;73.28;99128.69;2622988;54;20026;-70
2021/11/20 20:00:26;;;;;;;21.67;16.98;;;;;;;7.55;72.73;99128.69;2622661;54;20034;-70
2021/11/20 20:03:02;;;;;;;20.63;16.35;;;;;;;7.56;72.82;99140.88;2623232;54;20167;-70
2021/11/20 20:05:32;;;;;;;22.40;17.40;;;;;;;7.53;73.07;99131.50;2621079;54;20143;-71
2021/11/20 20:08:02;;;;;;;23.00;17.58;;;;;;;7.52;72.98;99135.13;2620592;54;20027;-70
2021/11/20 20:10:34;;;;;;;21.88;16.05;;;;;;;7.49;73.06;99134.63;2620804;47;20031;-71
2021/11/20 20:13:04;;;;;;;21.63;15.85;;;;;;;7.47;73.26;99137.44;2621772;54;20037;-71
2021/11/20 20:15:34;;;;;;;22.15;16.23;;;;;;;7.48;73.45;99127.72;2622995;39;20454;-70
2021/11/20 20:18:06;;;;;;;21.05;16.25;;;;;;;7.45;73.50;99118.34;2622511;46;20034;-70
2021/11/20 20:20:36;;;;;;;20.90;16.83;;;;;;;7.38;73.76;99107.66;2624268;54;20534;-71
2021/11/20 20:23:07;;;;;;;21.95;16.75;;;;;;;7.34;73.54;99108.97;2623788;54;20027;-70
2021/11/20 20:25:36;;;;;;;22.15;17.52;;;;;;;7.32;74.24;99104.88;2623977;54;20034;-71
2021/11/20 20:28:09;;;;;;;24.52;18.85;;;;;;;7.36;74.30;99101.75;2623909;54;20037;-70
2021/11/20 20:30:39;;;;;;;22.17;17.48;;;;;;;7.39;73.66;99103.22;2622224;54;20026;-71
2021/11/20 20:33:12;;;;;;;23.80;17.02;;;;;;;7.35;73.96;99099.28;2622460;54;20059;-74
2021/11/20 20:35:45;;;;;;;22.67;17.35;;;;;;;7.33;73.78;99098.63;2622670;54;20034;-70
2021/11/20 20:38:16;;;;;;;25.35;18.58;;;;;;;7.34;74.13;99100.25;2620379;54;20043;-70
2021/11/20 20:40:45;;;;;;;22.80;17.63;;;;;;;7.30;74.31;99097.13;2618691;54;20042;-70
2021/11/20 20:43:15;;;;;;;24.92;19.77;;;;;;;7.26;74.03;99089.72;2618109;54;20038;-70
2021/11/20 20:45:45;;;;;;;26.20;20.27;;;;;;;7.18;74.16;99083.50;2620839;54;20587;-70
2021/11/20 20:48:17;;;;;;;32.55;21.15;;;;;;;7.19;74.71;99079.88;2622141;54;20573;-70
2021/11/20 20:50:47;;;;;;;25.52;18.65;;;;;;;7.20;74.55;99084.16;2622352;54;20031;-71
2021/11/20 20:53:17;;;;;;;21.65;16.35;;;;;;;7.17;74.41;99087.09;2622111;54;20034;-71
2021/11/20 20:55:47;;;;;;;26.05;18.58;;;;;;;7.12;74.96;99091.22;2622079;54;20094;-71
2021/11/20 20:58:27;;;;;;;24.40;17.15;;;;;;;7.13;74.95;99080.53;2621036;54;20026;-69
2021/11/20 21:00:57;;;;;;;24.98;17.77;;;;;;;7.18;74.93;99080.03;2620524;54;20042;-69
2021/11/20 21:03:29;;;;;;;22.15;16.80;;;;;;;7.22;75.34;99078.72;2621231;54;20097;-71
2021/11/20 21:05:59;;;;;;;29.48;19.85;;;;;;;7.25;75.09;99075.75;2621661;54;20045;-70
2021/11/20 21:08:28;;;;;;;28.05;19.67;;;;;;;7.32;74.87;99073.31;2622428;54;20042;-69
2021/11/20 21:10:58;;;;;;;27.65;19.23;;;;;;;7.27;74.48;99081.69;2622135;54;20543;-70
2021/11/20 21:13:28;;;;;;;24.38;18.13;;;;;;;7.17;74.95;99068.69;2623944;54;20079;-70
2021/11/20 21:15:58;;;;;;;29.45;19.23;;;;;;;7.17;75.26;99067.88;2624588;47;20033;-71
2021/11/20 21:18:35;;;;;;;30.52;18.20;;;;;;;7.09;75.36;99063.44;2625034;54;20031;-70